sim
Sign-in with your pilot id or email,
or register
Callsign
Passwort

Schedule Details

Flight Number: OEO4011
Departure: Dusseldorf International Airport (EDDL) at 05:05
Arrival: Munich Airport (EDDM) at 06:20

Weather Information
Getting current METAR information for EDDL 010620Z 17009KT 130V190 CAVOK 13/11 Q1003 NOSIG
Getting current METAR information for EDDM 010620Z 00000KT 0800 R08L/0550D R08R/0275N FG SCT001 05/04 Q1009 BECMG 1500 BCFG

Schedule Frequency

Route Map